sensor_id;sensor_type;location;lat;lon;timestamp;pressure;altitude;pressure_sealevel;temperature;humidity
16194;BME280;8204;53.582;10.080;2022-10-15T00:01:36;97496.19;;;16.56;100.00
16194;BME280;8204;53.582;10.080;2022-10-15T00:04:05;97489.03;;;16.57;100.00
16194;BME280;8204;53.582;10.080;2022-10-15T00:06:33;97489.03;;;16.57;100.00
16194;BME280;8204;53.582;10.080;2022-10-15T00:09:02;97493.28;;;16.58;100.00
16194;BME280;8204;53.582;10.080;2022-10-15T00:11:31;97495.13;;;16.57;100.00
16194;BME280;8204;53.582;10.080;2022-10-15T00:14:00;97489.84;;;16.57;100.00
16194;BME280;8204;53.582;10.080;2022-10-15T00:16:34;97490.91;;;16.56;100.00
16194;BME280;8204;53.582;10.080;2022-10-15T00:19:03;97492.22;;;16.59;100.00
16194;BME280;8204;53.582;10.080;2022-10-15T00:21:32;97485.88;;;16.60;100.00
16194;BME280;8204;53.582;10.080;2022-10-15T00:24:00;97483.22;;;16.60;100.00
16194;BME280;8204;53.582;10.080;2022-10-15T00:26:29;97494.09;;;16.58;100.00
16194;BME280;8204;53.582;10.080;2022-10-15T00:29:01;97490.38;;;16.59;100.00
16194;BME280;8204;53.582;10.080;2022-10-15T00:31:31;97494.31;;;16.62;100.00
16194;BME280;8204;53.582;10.080;2022-10-15T00:34:02;97490.38;;;16.59;100.00
16194;BME280;8204;53.582;10.080;2022-10-15T00:36:33;97493.03;;;16.59;100.00
16194;BME280;8204;53.582;10.080;2022-10-15T00:39:03;97490.09;;;16.61;100.00
16194;BME280;8204;53.582;10.080;2022-10-15T00:41:34;97491.69;;;16.62;100.00
16194;BME280;8204;53.582;10.080;2022-10-15T00:47:05;97496.16;;;16.61;100.00
16194;BME280;8204;53.582;10.080;2022-10-15T00:49:39;97496.97;;;16.62;100.00
16194;BME280;8204;53.582;10.080;2022-10-15T00:52:15;97500.66;;;16.61;100.00
16194;BME280;8204;53.582;10.080;2022-10-15T00:54:48;97499.09;;;16.60;100.00
16194;BME280;8204;53.582;10.080;2022-10-15T00:57:18;97500.38;;;16.62;100.00
16194;BME280;8204;53.582;10.080;2022-10-15T00:59:49;97490.09;;;16.61;100.00
16194;BME280;8204;53.582;10.080;2022-10-15T01:02:20;97492.44;;;16.62;100.00
16194;BME280;8204;53.582;10.080;2022-10-15T01:04:52;97486.38;;;16.62;100.00
16194;BME280;8204;53.582;10.080;2022-10-15T01:07:21;97482.66;;;16.63;100.00
16194;BME280;8204;53.582;10.080;2022-10-15T01:09:50;97484.25;;;16.64;100.00
16194;BME280;8204;53.582;10.080;2022-10-15T01:12:27;97483.47;;;16.63;100.00
16194;BME280;8204;53.582;10.080;2022-10-15T01:15:04;97479.53;;;16.61;100.00
16194;BME280;8204;53.582;10.080;2022-10-15T01:17:41;97479.53;;;16.61;100.00
16194;BME280;8204;53.582;10.080;2022-10-15T01:26:30;97472.13;;;16.58;100.00
16194;BME280;8204;53.582;10.080;2022-10-15T01:29:11;97482.97;;;16.56;100.00
16194;BME280;8204;53.582;10.080;2022-10-15T01:31:53;97484.56;;;16.57;100.00
16194;BME280;8204;53.582;10.080;2022-10-15T01:34:31;97478.47;;;16.57;100.00
16194;BME280;8204;53.582;10.080;2022-10-15T01:37:07;97475.59;;;16.53;100.00
16194;BME280;8204;53.582;10.080;2022-10-15T01:39:39;97475.91;;;16.47;100.00
16194;BME280;8204;53.582;10.080;2022-10-15T01:42:14;97469.00;;;16.51;100.00
16194;BME280;8204;53.582;10.080;2022-10-15T01:44:48;97471.66;;;16.51;100.00
16194;BME280;8204;53.582;10.080;2022-10-15T01:47:23;97474.28;;;16.51;100.00
16194;BME280;8204;53.582;10.080;2022-10-15T01:49:55;97473.00;;;16.48;100.00
16194;BME280;8204;53.582;10.080;2022-10-15T01:52:29;97474.31;;;16.46;100.00
16194;BME280;8204;53.582;10.080;2022-10-15T01:55:00;97475.91;;;16.47;100.00
16194;BME280;8204;53.582;10.080;2022-10-15T01:57:31;97469.56;;;16.48;100.00
16194;BME280;8204;53.582;10.080;2022-10-15T02:00:01;97488.06;;;16.48;100.00
16194;BME280;8204;53.582;10.080;2022-10-15T02:02:32;97479.09;;;16.44;100.00
16194;BME280;8204;53.582;10.080;2022-10-15T02:05:02;97487.53;;;16.46;100.00
16194;BME280;8204;53.582;10.080;2022-10-15T02:07:36;97484.13;;;16.40;100.00
16194;BME280;8204;53.582;10.080;2022-10-15T02:10:14;97476.50;;;16.39;100.00
16194;BME280;8204;53.582;10.080;2022-10-15T02:12:53;97482.00;;;16.42;100.00
16194;BME280;8204;53.582;10.080;2022-10-15T02:15:35;97478.34;;;16.33;100.00
16194;BME280;8204;53.582;10.080;2022-10-15T02:18:09;97495.31;;;16.32;100.00
16194;BME280;8204;53.582;10.080;2022-10-15T02:20:47;97483.16;;;16.31;100.00
16194;BME280;8204;53.582;10.080;2022-10-15T02:23:20;97483.16;;;16.26;100.00
16194;BME280;8204;53.582;10.080;2022-10-15T02:25:51;97482.34;;;16.26;100.00
16194;BME280;8204;53.582;10.080;2022-10-15T02:28:22;97486.84;;;16.25;100.00
16194;BME280;8204;53.582;10.080;2022-10-15T02:30:55;97478.69;;;16.22;100.00
16194;BME280;8204;53.582;10.080;2022-10-15T02:33:29;97477.63;;;16.23;100.00
16194;BME280;8204;53.582;10.080;2022-10-15T02:35:59;97476.56;;;16.19;100.00
16194;BME280;8204;53.582;10.080;2022-10-15T02:38:29;97471.00;;;16.20;100.00
16194;BME280;8204;53.582;10.080;2022-10-15T02:41:01;97471.28;;;16.19;100.00
16194;BME280;8204;53.582;10.080;2022-10-15T02:43:30;97479.75;;;16.21;100.00
16194;BME280;8204;53.582;10.080;2022-10-15T02:45:59;97481.56;;;16.20;100.00
16194;BME280;8204;53.582;10.080;2022-10-15T02:48:30;97476.03;;;16.17;100.00
16194;BME280;8204;53.582;10.080;2022-10-15T02:50:59;97476.56;;;16.19;100.00
16194;BME280;8204;53.582;10.080;2022-10-15T02:53:29;97488.75;;;16.15;100.00
16194;BME280;8204;53.582;10.080;2022-10-15T02:55:58;97485.06;;;16.16;100.00
16194;BME280;8204;53.582;10.080;2022-10-15T02:58:26;97487.69;;;16.16;100.00
16194;BME280;8204;53.582;10.080;2022-10-15T03:00:56;97487.19;;;16.14;100.00
16194;BME280;8204;53.582;10.080;2022-10-15T03:03:25;97475.56;;;16.15;100.00
16194;BME280;8204;53.582;10.080;2022-10-15T03:05:56;97482.94;;;16.13;100.00
16194;BME280;8204;53.582;10.080;2022-10-15T03:08:25;97491.94;;;16.12;100.00
16194;BME280;8204;53.582;10.080;2022-10-15T03:10:54;97491.94;;;16.12;100.00
16194;BME280;8204;53.582;10.080;2022-10-15T03:13:22;97491.44;;;16.05;100.00
16194;BME280;8204;53.582;10.080;2022-10-15T03:15:51;97509.94;;;16.00;100.00
16194;BME280;8204;53.582;10.080;2022-10-15T03:18:20;97501.50;;;15.98;100.00
16194;BME280;8204;53.582;10.080;2022-10-15T03:20:52;97509.97;;;15.95;100.00
16194;BME280;8204;53.582;10.080;2022-10-15T03:23:24;97514.22;;;15.96;100.00
16194;BME280;8204;53.582;10.080;2022-10-15T03:25:53;97512.34;;;15.97;100.00
16194;BME280;8204;53.582;10.080;2022-10-15T03:28:21;97514.19;;;15.91;100.00
16194;BME280;8204;53.582;10.080;2022-10-15T03:30:50;97521.63;;;15.89;100.00
16194;BME280;8204;53.582;10.080;2022-10-15T03:33:19;97516.84;;;15.91;100.00
16194;BME280;8204;53.582;10.080;2022-10-15T03:35:48;97538.53;;;15.88;100.00
16194;BME280;8204;53.582;10.080;2022-10-15T03:38:17;97535.88;;;15.88;100.00
16194;BME280;8204;53.582;10.080;2022-10-15T03:40:48;97542.25;;;15.82;100.00
16194;BME280;8204;53.582;10.080;2022-10-15T03:43:17;97546.47;;;15.78;100.00
16194;BME280;8204;53.582;10.080;2022-10-15T03:45:46;97547.28;;;15.79;100.00
16194;BME280;8204;53.582;10.080;2022-10-15T03:48:15;97554.38;;;15.78;100.00
16194;BME280;8204;53.582;10.080;2022-10-15T03:50:44;97564.19;;;15.73;100.00
16194;BME280;8204;53.582;10.080;2022-10-15T03:53:13;97557.84;;;15.74;100.00
16194;BME280;8204;53.582;10.080;2022-10-15T03:55:41;97567.34;;;15.70;100.00
16194;BME280;8204;53.582;10.080;2022-10-15T03:58:13;97573.97;;;15.67;100.00
16194;BME280;8204;53.582;10.080;2022-10-15T04:00:42;97567.09;;;15.61;100.00
16194;BME280;8204;53.582;10.080;2022-10-15T04:03:13;97564.75;;;15.55;100.00
16194;BME280;8204;53.582;10.080;2022-10-15T04:05:48;97580.31;;;15.46;100.00
16194;BME280;8204;53.582;10.080;2022-10-15T04:08:18;97568.97;;;15.46;100.00
16194;BME280;8204;53.582;10.080;2022-10-15T04:10:47;97576.38;;;15.44;100.00
16194;BME280;8204;53.582;10.080;2022-10-15T04:13:18;97589.56;;;15.44;100.00
16194;BME280;8204;53.582;10.080;2022-10-15T04:15:47;97590.09;;;15.41;100.00
16194;BME280;8204;53.582;10.080;2022-10-15T04:18:15;97589.84;;;15.37;100.00
16194;BME280;8204;53.582;10.080;2022-10-15T04:20:46;97576.88;;;15.36;100.00
16194;BME280;8204;53.582;10.080;2022-10-15T04:23:15;97584.81;;;15.36;100.00
16194;BME280;8204;53.582;10.080;2022-10-15T04:25:44;97580.63;;;15.35;100.00
16194;BME280;8204;53.582;10.080;2022-10-15T04:28:13;97586.66;;;15.35;100.00
16194;BME280;8204;53.582;10.080;2022-10-15T04:30:45;97571.88;;;15.34;100.00
16194;BME280;8204;53.582;10.080;2022-10-15T04:33:14;97571.88;;;15.34;100.00
16194;BME280;8204;53.582;10.080;2022-10-15T04:35:42;97564.78;;;15.35;100.00
16194;BME280;8204;53.582;10.080;2022-10-15T04:38:11;97566.88;;;15.33;100.00
16194;BME280;8204;53.582;10.080;2022-10-15T04:40:40;97572.69;;;15.35;100.00
16194;BME280;8204;53.582;10.080;2022-10-15T04:43:08;97574.81;;;15.33;100.00
16194;BME280;8204;53.582;10.080;2022-10-15T04:45:37;97572.16;;;15.33;100.00
16194;BME280;8204;53.582;10.080;2022-10-15T04:48:08;97569.53;;;15.33;100.00
16194;BME280;8204;53.582;10.080;2022-10-15T04:50:37;97581.66;;;15.34;100.00
16194;BME280;8204;53.582;10.080;2022-10-15T04:53:06;97577.16;;;15.34;100.00
16194;BME280;8204;53.582;10.080;2022-10-15T04:55:35;97579.81;;;15.34;100.00
16194;BME280;8204;53.582;10.080;2022-10-15T04:58:03;97577.69;;;15.36;100.00
16194;BME280;8204;53.582;10.080;2022-10-15T05:00:32;97574.00;;;15.37;100.00
16194;BME280;8204;53.582;10.080;2022-10-15T05:03:01;97577.97;;;15.40;100.00
16194;BME280;8204;53.582;10.080;2022-10-15T05:05:32;97577.97;;;15.40;100.00
16194;BME280;8204;53.582;10.080;2022-10-15T05:08:02;97575.06;;;15.41;100.00
16194;BME280;8204;53.582;10.080;2022-10-15T05:10:31;97580.31;;;15.41;100.00
16194;BME280;8204;53.582;10.080;2022-10-15T05:13:00;97574.50;;;15.39;100.00
16194;BME280;8204;53.582;10.080;2022-10-15T05:15:29;97581.91;;;15.42;100.00
16194;BME280;8204;53.582;10.080;2022-10-15T05:17:58;97596.16;;;15.41;100.00
16194;BME280;8204;53.582;10.080;2022-10-15T05:20:26;97599.84;;;15.40;100.00
16194;BME280;8204;53.582;10.080;2022-10-15T05:22:58;97594.56;;;15.40;100.00
16194;BME280;8204;53.582;10.080;2022-10-15T05:25:30;97603.81;;;15.43;100.00
16194;BME280;8204;53.582;10.080;2022-10-15T05:27:59;97604.63;;;15.43;100.00
16194;BME280;8204;53.582;10.080;2022-10-15T05:30:27;97611.47;;;15.39;100.00
16194;BME280;8204;53.582;10.080;2022-10-15T05:32:56;97612.28;;;15.35;100.00
16194;BME280;8204;53.582;10.080;2022-10-15T05:35:25;97610.41;;;15.35;100.00
16194;BME280;8204;53.582;10.080;2022-10-15T05:37:54;97609.38;;;15.36;100.00
16194;BME280;8204;53.582;10.080;2022-10-15T05:40:26;97614.09;;;15.39;100.00
16194;BME280;8204;53.582;10.080;2022-10-15T05:42:54;97622.00;;;15.39;100.00
16194;BME280;8204;53.582;10.080;2022-10-15T05:45:23;97624.38;;;15.36;100.00
16194;BME280;8204;53.582;10.080;2022-10-15T05:47:53;97634.16;;;15.35;100.00
16194;BME280;8204;53.582;10.080;2022-10-15T05:50:22;97626.25;;;15.35;100.00
16194;BME280;8204;53.582;10.080;2022-10-15T05:52:53;97636.78;;;15.35;100.00
16194;BME280;8204;53.582;10.080;2022-10-15T05:55:21;97627.28;;;15.34;100.00
16194;BME280;8204;53.582;10.080;2022-10-15T05:57:53;97632.03;;;15.32;100.00
16194;BME280;8204;53.582;10.080;2022-10-15T06:00:22;97634.16;;;15.35;100.00
16194;BME280;8204;53.582;10.080;2022-10-15T06:02:51;97638.38;;;15.32;100.00
16194;BME280;8204;53.582;10.080;2022-10-15T06:05:19;97643.13;;;15.34;100.00
16194;BME280;8204;53.582;10.080;2022-10-15T06:07:48;97643.41;;;15.33;100.00
16194;BME280;8204;53.582;10.080;2022-10-15T06:10:17;97640.47;;;15.34;100.00
16194;BME280;8204;53.582;10.080;2022-10-15T06:12:52;97641.53;;;15.33;100.00
16194;BME280;8204;53.582;10.080;2022-10-15T06:15:21;97651.31;;;15.33;100.00
16194;BME280;8204;53.582;10.080;2022-10-15T06:17:51;97661.59;;;15.30;100.00
16194;BME280;8204;53.582;10.080;2022-10-15T06:20:20;97668.47;;;15.31;100.00
16194;BME280;8204;53.582;10.080;2022-10-15T06:22:49;97664.50;;;15.28;100.00
16194;BME280;8204;53.582;10.080;2022-10-15T06:25:18;97676.63;;;15.29;100.00
16194;BME280;8204;53.582;10.080;2022-10-15T06:27:47;97681.13;;;15.29;100.00
16194;BME280;8204;53.582;10.080;2022-10-15T06:30:18;97680.06;;;15.25;100.00
16194;BME280;8204;53.582;10.080;2022-10-15T06:32:48;97684.78;;;15.28;100.00
16194;BME280;8204;53.582;10.080;2022-10-15T06:35:18;97690.88;;;15.28;100.00
16194;BME280;8204;53.582;10.080;2022-10-15T06:37:47;97680.06;;;15.30;100.00
16194;BME280;8204;53.582;10.080;2022-10-15T06:40:16;97687.44;;;15.32;100.00
16194;BME280;8204;53.582;10.080;2022-10-15T06:42:45;97683.50;;;15.35;100.00
16194;BME280;8204;53.582;10.080;2022-10-15T06:45:14;97677.41;;;15.39;100.00
16194;BME280;8204;53.582;10.080;2022-10-15T06:47:45;97687.97;;;15.39;100.00
16194;BME280;8204;53.582;10.080;2022-10-15T06:50:14;97681.13;;;15.38;100.00
16194;BME280;8204;53.582;10.080;2022-10-15T06:52:43;97691.16;;;15.41;100.00
16194;BME280;8204;53.582;10.080;2022-10-15T06:55:11;97700.13;;;15.40;100.00
16194;BME280;8204;53.582;10.080;2022-10-15T06:57:40;97692.75;;;15.37;100.00
16194;BME280;8204;53.582;10.080;2022-10-15T07:00:11;97691.16;;;15.41;100.00
16194;BME280;8204;53.582;10.080;2022-10-15T07:02:39;97690.88;;;15.43;100.00
16194;BME280;8204;53.582;10.080;2022-10-15T07:05:11;97700.66;;;15.37;100.00
16194;BME280;8204;53.582;10.080;2022-10-15T07:07:40;97710.94;;;15.34;100.00
16194;BME280;8204;53.582;10.080;2022-10-15T07:10:09;97706.44;;;15.39;100.00
16194;BME280;8204;53.582;10.080;2022-10-15T07:12:38;97699.84;;;15.42;100.00
16194;BME280;8204;53.582;10.080;2022-10-15T07:15:07;97707.75;;;15.42;100.00
16194;BME280;8204;53.582;10.080;2022-10-15T07:17:36;97716.75;;;15.41;100.00
16194;BME280;8204;53.582;10.080;2022-10-15T07:20:06;97714.34;;;15.39;100.00
16194;BME280;8204;53.582;10.080;2022-10-15T07:22:38;97709.09;;;15.39;100.00
16194;BME280;8204;53.582;10.080;2022-10-15T07:25:07;97718.59;;;15.40;100.00
16194;BME280;8204;53.582;10.080;2022-10-15T07:27:37;97714.34;;;15.39;100.00
16194;BME280;8204;53.582;10.080;2022-10-15T07:30:08;97715.44;;;15.43;100.00
16194;BME280;8204;53.582;10.080;2022-10-15T07:32:37;97714.91;;;15.46;100.00
16194;BME280;8204;53.582;10.080;2022-10-15T07:35:07;97715.72;;;15.47;100.00
16194;BME280;8204;53.582;10.080;2022-10-15T07:37:38;97717.81;;;15.50;100.00
16194;BME280;8204;53.582;10.080;2022-10-15T07:40:08;97720.19;;;15.51;100.00
16194;BME280;8204;53.582;10.080;2022-10-15T07:42:37;97709.38;;;15.53;100.00
16194;BME280;8204;53.582;10.080;2022-10-15T07:45:08;97702.78;;;15.50;100.00
16194;BME280;8204;53.582;10.080;2022-10-15T07:47:39;97706.47;;;15.54;100.00
16194;BME280;8204;53.582;10.080;2022-10-15T07:50:08;97717.03;;;15.64;100.00
16194;BME280;8204;53.582;10.080;2022-10-15T07:52:40;97724.69;;;15.66;100.00
16194;BME280;8204;53.582;10.080;2022-10-15T07:55:09;97733.94;;;15.68;100.00
16194;BME280;8204;53.582;10.080;2022-10-15T07:57:38;97734.97;;;15.72;100.00
16194;BME280;8204;53.582;10.080;2022-10-15T08:00:08;97743.44;;;15.74;100.00
16194;BME280;8204;53.582;10.080;2022-10-15T08:02:37;97739.22;;;15.73;100.00
16194;BME280;8204;53.582;10.080;2022-10-15T08:05:06;97736.56;;;15.73;100.00
16194;BME280;8204;53.582;10.080;2022-10-15T08:07:35;97739.19;;;15.78;100.00
16194;BME280;8204;53.582;10.080;2022-10-15T08:10:09;97738.16;;;15.79;100.00
16194;BME280;8204;53.582;10.080;2022-10-15T08:12:38;97729.72;;;15.82;100.00
16194;BME280;8204;53.582;10.080;2022-10-15T08:15:08;97723.38;;;15.83;100.00
16194;BME280;8204;53.582;10.080;2022-10-15T08:17:37;97721.25;;;15.80;100.00
16194;BME280;8204;53.582;10.080;2022-10-15T08:20:07;97720.19;;;15.86;100.00
16194;BME280;8204;53.582;10.080;2022-10-15T08:22:36;97724.41;;;15.92;100.00
16194;BME280;8204;53.582;10.080;2022-10-15T08:25:06;97736.84;;;15.92;100.00
16194;BME280;8204;53.582;10.080;2022-10-15T08:27:37;97751.63;;;15.93;100.00
16194;BME280;8204;53.582;10.080;2022-10-15T08:30:07;97763.25;;;15.97;100.00
16194;BME280;8204;53.582;10.080;2022-10-15T08:32:36;97749.78;;;16.08;100.00
16194;BME280;8204;53.582;10.080;2022-10-15T08:35:06;97745.53;;;16.12;100.00
16194;BME280;8204;53.582;10.080;2022-10-15T08:37:35;97763.22;;;16.16;100.00
16194;BME280;8204;53.582;10.080;2022-10-15T08:40:05;97767.75;;;16.16;100.00
16194;BME280;8204;53.582;10.080;2022-10-15T08:42:40;97798.38;;;16.12;100.00
16194;BME280;8204;53.582;10.080;2022-10-15T08:45:16;97804.47;;;16.12;100.00
16194;BME280;8204;53.582;10.080;2022-10-15T08:47:49;97814.22;;;16.12;100.00
16194;BME280;8204;53.582;10.080;2022-10-15T08:50:24;97802.06;;;16.11;100.00
16194;BME280;8204;53.582;10.080;2022-10-15T08:52:55;97796.00;;;16.10;100.00
16194;BME280;8204;53.582;10.080;2022-10-15T08:55:30;97778.03;;;16.12;100.00
16194;BME280;8204;53.582;10.080;2022-10-15T08:58:09;97779.38;;;16.10;100.00
16194;BME280;8204;53.582;10.080;2022-10-15T09:00:43;97776.16;;;16.18;100.00
16194;BME280;8204;53.582;10.080;2022-10-15T09:03:25;97768.25;;;16.23;100.00
16194;BME280;8204;53.582;10.080;2022-10-15T09:06:01;97746.84;;;16.34;100.00
16194;BME280;8204;53.582;10.080;2022-10-15T09:08:35;97783.34;;;16.32;100.00
16194;BME280;8204;53.582;10.080;2022-10-15T09:11:13;97799.19;;;16.37;100.00
16194;BME280;8204;53.582;10.080;2022-10-15T09:13:47;97798.91;;;16.34;100.00
16194;BME280;8204;53.582;10.080;2022-10-15T09:16:20;97778.56;;;16.44;100.00
16194;BME280;8204;53.582;10.080;2022-10-15T09:18:51;97799.97;;;16.48;100.00
16194;BME280;8204;53.582;10.080;2022-10-15T09:21:22;97807.34;;;16.51;100.00
16194;BME280;8204;53.582;10.080;2022-10-15T09:23:54;97794.16;;;16.56;100.00
16194;BME280;8204;53.582;10.080;2022-10-15T09:26:27;97809.47;;;16.54;100.00
16194;BME280;8204;53.582;10.080;2022-10-15T09:29:10;97810.00;;;16.61;100.00
16194;BME280;8204;53.582;10.080;2022-10-15T09:31:47;97792.50;;;16.65;100.00
16194;BME280;8204;53.582;10.080;2022-10-15T09:34:20;97812.63;;;16.66;100.00
16194;BME280;8204;53.582;10.080;2022-10-15T09:36:54;97820.53;;;16.71;100.00
16194;BME280;8204;53.582;10.080;2022-10-15T09:39:47;97820.50;;;16.76;100.00
16194;BME280;8204;53.582;10.080;2022-10-15T09:42:27;97852.78;;;16.73;100.00
16194;BME280;8204;53.582;10.080;2022-10-15T09:45:05;97870.78;;;16.71;100.00
16194;BME280;8204;53.582;10.080;2022-10-15T09:47:34;97862.81;;;16.76;100.00
16194;BME280;8204;53.582;10.080;2022-10-15T09:50:06;97853.84;;;16.82;100.00
16194;BME280;8204;53.582;10.080;2022-10-15T09:52:47;97880.28;;;16.86;100.00
16194;BME280;8204;53.582;10.080;2022-10-15T09:55:32;97890.59;;;16.88;100.00
16194;BME280;8204;53.582;10.080;2022-10-15T09:58:06;97894.53;;;16.95;100.00
16194;BME280;8204;53.582;10.080;2022-10-15T10:01:00;97888.69;;;17.08;100.00
16194;BME280;8204;53.582;10.080;2022-10-15T10:03:30;97918.59;;;17.09;100.00
16194;BME280;8204;53.582;10.080;2022-10-15T10:06:02;97914.59;;;17.16;100.00
16194;BME280;8204;53.582;10.080;2022-10-15T10:08:34;97908.75;;;17.24;100.00
16194;BME280;8204;53.582;10.080;2022-10-15T10:11:07;97907.72;;;17.30;100.00
16194;BME280;8204;53.582;10.080;2022-10-15T10:13:39;97932.34;;;17.31;100.00
16194;BME280;8204;53.582;10.080;2022-10-15T10:16:17;97921.47;;;17.32;100.00
16194;BME280;8204;53.582;10.080;2022-10-15T10:19:04;97932.00;;;17.52;100.00
16194;BME280;8204;53.582;10.080;2022-10-15T10:21:35;97944.44;;;17.57;100.00
16194;BME280;8204;53.582;10.080;2022-10-15T10:24:33;97983.84;;;17.68;100.00
16194;BME280;8204;53.582;10.080;2022-10-15T10:27:02;97994.16;;;17.74;100.00
16194;BME280;8204;53.582;10.080;2022-10-15T10:29:36;97980.09;;;17.84;100.00
16194;BME280;8204;53.582;10.080;2022-10-15T10:32:17;97961.47;;;17.99;100.00
16194;BME280;8204;53.582;10.080;2022-10-15T10:34:48;97984.72;;;18.12;100.00
16194;BME280;8204;53.582;10.080;2022-10-15T10:37:18;97965.59;;;18.25;100.00
16194;BME280;8204;53.582;10.080;2022-10-15T10:39:51;98040.09;;;18.28;100.00
16194;BME280;8204;53.582;10.080;2022-10-15T10:42:32;98059.09;;;18.40;100.00
16194;BME280;8204;53.582;10.080;2022-10-15T10:45:16;98086.88;;;18.52;100.00
16194;BME280;8204;53.582;10.080;2022-10-15T10:47:48;98139.66;;;18.54;100.00
16194;BME280;8204;53.582;10.080;2022-10-15T10:50:29;98155.50;;;18.69;100.00
16194;BME280;8204;53.582;10.080;2022-10-15T10:53:15;98172.97;;;18.80;100.00
16194;BME280;8204;53.582;10.080;2022-10-15T10:55:47;98157.22;;;18.93;100.00
16194;BME280;8204;53.582;10.080;2022-10-15T10:58:18;98177.91;;;19.01;100.00
16194;BME280;8204;53.582;10.080;2022-10-15T11:00:50;98192.72;;;19.12;100.00
16194;BME280;8204;53.582;10.080;2022-10-15T11:03:33;98248.22;;;19.13;100.00
16194;BME280;8204;53.582;10.080;2022-10-15T11:06:14;98268.66;;;19.13;100.00
16194;BME280;8204;53.582;10.080;2022-10-15T11:08:54;98297.31;;;19.11;100.00
16194;BME280;8204;53.582;10.080;2022-10-15T11:11:32;98318.56;;;19.16;100.00
16194;BME280;8204;53.582;10.080;2022-10-15T11:14:10;98300.47;;;19.18;100.00
16194;BME280;8204;53.582;10.080;2022-10-15T11:16:49;98297.28;;;19.21;100.00
16194;BME280;8204;53.582;10.080;2022-10-15T11:19:30;98354.09;;;19.25;100.00
16194;BME280;8204;53.582;10.080;2022-10-15T11:22:16;98331.75;;;19.36;100.00
16194;BME280;8204;53.582;10.080;2022-10-15T11:24:54;98283.84;;;19.56;100.00
16194;BME280;8204;53.582;10.080;2022-10-15T11:27:45;98368.50;;;19.72;100.00
16194;BME280;8204;53.582;10.080;2022-10-15T11:30:26;98438.81;;;19.89;100.00
16194;BME280;8204;53.582;10.080;2022-10-15T11:33:11;98632.88;;;20.04;100.00
16194;BME280;8204;53.582;10.080;2022-10-15T11:35:48;98745.91;;;20.22;100.00
16194;BME280;8204;53.582;10.080;2022-10-15T11:38:28;98830.72;;;20.28;100.00
16194;BME280;8204;53.582;10.080;2022-10-15T11:41:07;98844.59;;;20.40;100.00
16194;BME280;8204;53.582;10.080;2022-10-15T11:43:49;98908.41;;;20.55;100.00
16194;BME280;8204;53.582;10.080;2022-10-15T11:46:26;98920.41;;;20.67;100.00
16194;BME280;8204;53.582;10.080;2022-10-15T11:49:03;99123.28;;;20.74;100.00
16194;BME280;8204;53.582;10.080;2022-10-15T11:51:55;99298.25;;;20.79;100.00
16194;BME280;8204;53.582;10.080;2022-10-15T11:54:31;99307.31;;;20.83;100.00
16194;BME280;8204;53.582;10.080;2022-10-15T11:57:02;99327.44;;;20.69;100.00
16194;BME280;8204;53.582;10.080;2022-10-15T11:59:34;99292.13;;;20.83;100.00
16194;BME280;8204;53.582;10.080;2022-10-15T12:02:10;99313.78;;;20.97;100.00
16194;BME280;8204;53.582;10.080;2022-10-15T12:04:45;99395.34;;;21.08;100.00
16194;BME280;8204;53.582;10.080;2022-10-15T12:07:21;99421.97;;;21.08;100.00
16194;BME280;8204;53.582;10.080;2022-10-15T12:09:54;99416.91;;;21.06;100.00
16194;BME280;8204;53.582;10.080;2022-10-15T12:12:32;99398.09;;;21.23;100.00
16194;BME280;8204;53.582;10.080;2022-10-15T12:15:13;99457.03;;;21.31;100.00
16194;BME280;8204;53.582;10.080;2022-10-15T12:17:48;99415.25;;;21.41;100.00
16194;BME280;8204;53.582;10.080;2022-10-15T12:20:21;99421.19;;;21.53;100.00
16194;BME280;8204;53.582;10.080;2022-10-15T12:22:58;99440.41;;;21.55;100.00
16194;BME280;8204;53.582;10.080;2022-10-15T12:25:42;99461.47;;;21.62;100.00
16194;BME280;8204;53.582;10.080;2022-10-15T12:28:13;99495.91;;;21.68;100.00
16194;BME280;8204;53.582;10.080;2022-10-15T12:30:56;99511.44;;;21.81;100.00
16194;BME280;8204;53.582;10.080;2022-10-15T12:33:32;99561.56;;;21.84;100.00
16194;BME280;8204;53.582;10.080;2022-10-15T12:36:04;99520.56;;;21.95;100.00
16194;BME280;8204;53.582;10.080;2022-10-15T12:38:39;99545.13;;;21.97;100.00
16194;BME280;8204;53.582;10.080;2022-10-15T12:41:10;99502.47;;;22.07;100.00
16194;BME280;8204;53.582;10.080;2022-10-15T12:43:43;99457.38;;;22.15;100.00
16194;BME280;8204;53.582;10.080;2022-10-15T12:46:13;99557.47;;;22.13;100.00
16194;BME280;8204;53.582;10.080;2022-10-15T12:48:43;99535.03;;;22.14;100.00
16194;BME280;8204;53.582;10.080;2022-10-15T12:51:36;99544.38;;;22.06;100.00
16194;BME280;8204;53.582;10.080;2022-10-15T12:54:37;99566.81;;;22.20;100.00
16194;BME280;8204;53.582;10.080;2022-10-15T13:00:29;99663.00;;;22.35;100.00
16194;BME280;8204;53.582;10.080;2022-10-15T13:03:15;99693.22;;;22.46;100.00
16194;BME280;8204;53.582;10.080;2022-10-15T13:05:45;99745.28;;;22.43;100.00
16194;BME280;8204;53.582;10.080;2022-10-15T13:08:18;99792.38;;;22.23;100.00
16194;BME280;8204;53.582;10.080;2022-10-15T13:10:53;99811.72;;;22.03;100.00
16194;BME280;8204;53.582;10.080;2022-10-15T13:13:24;99776.28;;;21.82;100.00
16194;BME280;8204;53.582;10.080;2022-10-15T13:15:56;99775.31;;;21.61;100.00
16194;BME280;8204;53.582;10.080;2022-10-15T13:18:28;99748.72;;;21.45;100.00
16194;BME280;8204;53.582;10.080;2022-10-15T13:20:58;99755.72;;;21.25;100.00
16194;BME280;8204;53.582;10.080;2022-10-15T13:23:28;99707.91;;;21.13;100.00
16194;BME280;8204;53.582;10.080;2022-10-15T13:26:17;99667.63;;;21.10;100.00
16194;BME280;8204;53.582;10.080;2022-10-15T13:28:47;99642.34;;;21.12;100.00
16194;BME280;8204;53.582;10.080;2022-10-15T13:31:21;99638.94;;;20.90;100.00